createdAt,value
2023-01-30T00:00:39.733Z,7.55
2023-01-30T00:03:43.107Z,8.63
2023-01-30T00:07:06.817Z,6.40
2023-01-30T00:10:01.060Z,7.78
2023-01-30T00:16:05.895Z,9.00
2023-01-30T00:18:59.439Z,7.15
2023-01-30T00:22:02.516Z,7.22
2023-01-30T00:24:45.909Z,6.57
2023-01-30T00:32:13.924Z,8.13
2023-01-30T00:35:06.327Z,8.10
2023-01-30T00:39:38.407Z,6.70
2023-01-30T00:41:15.992Z,6.40
2023-01-30T00:44:54.882Z,8.90
2023-01-30T00:51:00.751Z,6.90
2023-01-30T00:54:14.647Z,6.45
2023-01-30T00:56:57.978Z,7.72
2023-01-30T00:59:56.994Z,8.20
2023-01-30T01:03:00.444Z,8.40
2023-01-30T01:05:59.909Z,6.65
2023-01-30T01:15:34.839Z,7.38
2023-01-30T01:18:21.766Z,8.00
2023-01-30T01:24:37.419Z,7.40
2023-01-30T01:27:23.021Z,8.45
2023-01-30T01:32:09.177Z,7.68
2023-01-30T01:33:56.263Z,7.57
2023-01-30T01:37:22.947Z,8.43
2023-01-30T01:47:22.488Z,7.65
2023-01-30T01:50:04.756Z,4.35
2023-01-30T01:52:47.407Z,7.80
2023-01-30T01:55:59.110Z,6.70
2023-01-30T01:59:00.134Z,6.57
2023-01-30T02:01:58.222Z,8.02
2023-01-30T02:06:30.411Z,8.35
2023-01-30T02:08:56.440Z,8.15
2023-01-30T02:11:57.903Z,8.30
2023-01-30T02:14:44.763Z,8.05
2023-01-30T02:18:19.570Z,6.47
2023-01-30T02:29:14.453Z,7.43
2023-01-30T02:32:25.380Z,6.47
2023-01-30T02:36:15.422Z,7.15
2023-01-30T02:39:27.776Z,6.53
2023-01-30T02:42:45.184Z,7.22
2023-01-30T02:45:48.678Z,7.35
2023-01-30T02:49:35.641Z,6.80
2023-01-30T02:52:30.861Z,6.90
2023-01-30T02:56:45.402Z,7.05
2023-01-30T03:01:58.374Z,6.38
2023-01-30T03:05:23.762Z,6.47
2023-01-30T03:13:01.095Z,7.00
2023-01-30T03:16:21.064Z,4.80
2023-01-30T03:19:11.757Z,5.82
2023-01-30T03:22:48.276Z,5.35
2023-01-30T03:25:35.248Z,6.80
2023-01-30T03:29:38.114Z,6.40
2023-01-30T03:32:39.445Z,5.07
2023-01-30T03:35:35.780Z,5.35
2023-01-30T03:38:46.916Z,5.70
2023-01-30T03:44:56.356Z,6.18
2023-01-30T03:51:17.061Z,4.53
2023-01-30T03:55:11.027Z,6.20
2023-01-30T03:58:03.011Z,4.90
2023-01-30T04:01:10.541Z,5.38
2023-01-30T04:04:13.248Z,5.60
2023-01-30T04:07:58.484Z,5.20
2023-01-30T04:10:54.828Z,5.28
2023-01-30T04:14:17.846Z,6.07
2023-01-30T04:17:32.161Z,5.97
2023-01-30T04:23:57.850Z,5.68
2023-01-30T04:27:10.101Z,6.45
2023-01-30T04:33:40.967Z,6.10
2023-01-30T04:36:39.329Z,4.63
2023-01-30T04:39:15.964Z,6.32
2023-01-30T04:41:57.139Z,6.18
2023-01-30T04:44:42.986Z,5.85
2023-01-30T04:52:23.880Z,5.32
2023-01-30T04:57:08.905Z,4.95
2023-01-30T05:00:12.089Z,5.70
2023-01-30T05:03:12.633Z,6.13
2023-01-30T05:06:23.081Z,5.43
2023-01-30T05:09:23.488Z,5.05
2023-01-30T05:16:16.745Z,4.63
2023-01-30T05:19:01.922Z,6.35
2023-01-30T05:22:42.264Z,5.55
2023-01-30T05:25:44.313Z,4.80
2023-01-30T05:29:05.838Z,5.78
2023-01-30T05:32:16.741Z,6.30
2023-01-30T05:35:16.733Z,4.97
2023-01-30T05:38:48.348Z,5.40
2023-01-30T05:42:12.762Z,5.05
2023-01-30T05:45:31.459Z,5.20
2023-01-30T05:48:28.829Z,5.57
2023-01-30T05:51:31.728Z,5.03
2023-01-30T05:54:12.228Z,5.43
2023-01-30T05:58:58.634Z,5.13
2023-01-30T06:00:55.154Z,5.22
2023-01-30T06:04:14.385Z,4.67
2023-01-30T06:07:10.548Z,4.53
2023-01-30T06:10:40.434Z,4.75
2023-01-30T06:13:35.442Z,4.40
2023-01-30T06:16:35.998Z,5.57
2023-01-30T06:19:37.713Z,4.63
2023-01-30T06:26:11.354Z,4.47
2023-01-30T06:28:49.925Z,4.57
2023-01-30T06:31:36.011Z,5.00
2023-01-30T06:34:37.238Z,4.67
2023-01-30T06:37:59.584Z,4.32
2023-01-30T06:41:42.652Z,4.22
2023-01-30T06:45:03.726Z,4.30
2023-01-30T06:47:40.107Z,5.35
2023-01-30T06:50:27.670Z,4.80
2023-01-30T06:53:09.992Z,5.25
2023-01-30T06:55:53.612Z,4.18
2023-01-30T06:58:45.412Z,3.60
2023-01-30T07:02:50.860Z,4.85
2023-01-30T07:10:29.574Z,3.83
2023-01-30T07:18:20.461Z,3.63
2023-01-30T07:21:05.575Z,3.88
2023-01-30T07:23:59.021Z,4.17
2023-01-30T07:26:38.812Z,4.35
2023-01-30T07:29:39.817Z,4.63
2023-01-30T07:32:38.000Z,4.05
2023-01-30T07:35:43.606Z,4.00
2023-01-30T07:38:22.403Z,3.47
2023-01-30T07:41:04.222Z,4.13
2023-01-30T07:43:45.587Z,3.38
2023-01-30T07:46:24.183Z,4.03
2023-01-30T07:48:51.669Z,4.18
2023-01-30T07:51:32.409Z,3.70
2023-01-30T07:54:05.493Z,3.75
2023-01-30T07:56:56.695Z,4.00
2023-01-30T07:59:36.242Z,3.90
2023-01-30T08:02:19.204Z,3.85
2023-01-30T08:05:08.514Z,4.20
2023-01-30T08:08:09.791Z,3.92
2023-01-30T08:11:44.676Z,3.35
2023-01-30T08:14:32.475Z,4.13
2023-01-30T08:21:28.432Z,3.27
2023-01-30T08:24:45.562Z,3.47
2023-01-30T08:28:00.972Z,3.60
2023-01-30T08:31:30.052Z,2.72
2023-01-30T08:34:52.624Z,3.13
2023-01-30T08:38:03.550Z,3.13
2023-01-30T08:41:00.341Z,3.38
2023-01-30T08:43:55.455Z,2.17
2023-01-30T08:46:50.374Z,1.80
2023-01-30T08:49:54.245Z,2.38
2023-01-30T08:53:17.581Z,2.20
2023-01-30T08:55:56.509Z,1.52
2023-01-30T08:58:38.734Z,1.55
2023-01-30T09:02:38.188Z,2.30
2023-01-30T09:07:04.990Z,1.77
2023-01-30T09:10:05.154Z,1.83
2023-01-30T09:13:33.307Z,2.25
2023-01-30T09:16:16.062Z,2.08
2023-01-30T09:19:08.262Z,1.80
2023-01-30T09:22:17.108Z,1.13
2023-01-30T09:25:02.061Z,0.80
2023-01-30T09:28:48.017Z,0.98
2023-01-30T09:31:07.114Z,1.13
2023-01-30T09:33:50.305Z,0.80
2023-01-30T09:36:31.093Z,1.33
2023-01-30T09:39:20.745Z,0.68
2023-01-30T09:42:44.138Z,0.82
2023-01-30T09:45:36.165Z,0.80
2023-01-30T09:53:08.256Z,0.83
2023-01-30T09:56:20.398Z,1.10
2023-01-30T09:59:13.277Z,1.00
2023-01-30T10:02:33.841Z,0.60
2023-01-30T10:05:15.279Z,1.20
2023-01-30T10:08:14.514Z,1.30
2023-01-30T10:11:34.350Z,1.00
2023-01-30T10:14:52.747Z,0.70
2023-01-30T10:17:37.741Z,1.15
2023-01-30T10:20:35.764Z,1.20
2023-01-30T10:24:01.101Z,1.23
2023-01-30T10:26:48.360Z,0.60
2023-01-30T10:30:01.294Z,1.00
2023-01-30T10:32:57.236Z,0.85
2023-01-30T10:36:24.328Z,0.93
2023-01-30T10:39:13.688Z,0.77
2023-01-30T10:42:21.114Z,0.88
2023-01-30T10:45:20.796Z,1.25
2023-01-30T10:48:01.909Z,0.65
2023-01-30T10:50:55.359Z,0.77
2023-01-30T10:54:20.047Z,1.00
2023-01-30T10:57:30.772Z,0.70
2023-01-30T11:00:20.859Z,0.90
2023-01-30T11:03:47.103Z,1.05
2023-01-30T11:06:24.026Z,0.70
2023-01-30T11:09:09.534Z,0.80
2023-01-30T11:12:29.355Z,1.13
2023-01-30T11:15:06.720Z,0.70
2023-01-30T11:17:42.990Z,0.93
2023-01-30T11:20:21.024Z,1.00
2023-01-30T11:23:35.825Z,1.00
2023-01-30T11:26:15.023Z,0.60
2023-01-30T11:29:37.110Z,0.77
2023-01-30T11:32:38.990Z,1.00
2023-01-30T11:35:10.043Z,0.82
2023-01-30T11:40:40.973Z,0.80
2023-01-30T11:43:39.910Z,0.95
2023-01-30T11:46:39.754Z,0.80
2023-01-30T11:50:23.353Z,0.88
2023-01-30T11:53:01.969Z,0.53
2023-01-30T11:56:02.211Z,1.17
2023-01-30T11:58:41.235Z,1.17
2023-01-30T12:01:15.089Z,1.00
2023-01-30T12:03:56.718Z,1.00
2023-01-30T12:06:46.445Z,0.70
2023-01-30T12:09:42.642Z,0.90
2023-01-30T12:12:48.913Z,0.70
2023-01-30T12:15:56.125Z,1.08
2023-01-30T12:18:55.633Z,0.80
2023-01-30T12:22:36.208Z,1.37
2023-01-30T12:25:41.373Z,0.98
2023-01-30T12:28:48.795Z,0.68
2023-01-30T12:31:47.939Z,1.20
2023-01-30T12:49:30.808Z,0.75
2023-01-30T12:53:09.780Z,1.10
2023-01-30T12:56:12.256Z,0.60
2023-01-30T12:59:27.645Z,0.73
2023-01-30T13:12:01.611Z,0.63
2023-01-30T13:17:04.117Z,0.83
2023-01-30T13:19:53.330Z,0.88
2023-01-30T13:23:02.179Z,1.40
2023-01-30T13:26:35.788Z,1.45
2023-01-30T13:29:18.336Z,1.10
2023-01-30T13:32:18.213Z,1.50
2023-01-30T13:34:59.268Z,1.08
2023-01-30T13:37:47.726Z,0.77
2023-01-30T13:41:15.971Z,1.02
2023-01-30T13:44:11.734Z,0.98
2023-01-30T13:48:05.206Z,1.03
2023-01-30T13:50:51.921Z,0.55
2023-01-30T13:58:07.523Z,0.88
2023-01-30T14:01:07.488Z,1.35
2023-01-30T14:03:50.821Z,1.10
2023-01-30T14:06:37.974Z,1.27
2023-01-30T14:09:27.751Z,1.40
2023-01-30T14:12:12.620Z,1.00
2023-01-30T14:15:22.695Z,0.90
2023-01-30T14:18:39.457Z,1.07
2023-01-30T14:21:34.524Z,1.30
2023-01-30T14:24:31.486Z,0.82
2023-01-30T14:27:43.897Z,1.00
2023-01-30T14:30:52.945Z,1.35
2023-01-30T14:33:33.393Z,0.87
2023-01-30T14:36:06.299Z,0.75
2023-01-30T14:39:22.570Z,1.60
2023-01-30T14:42:24.541Z,0.95
2023-01-30T14:45:04.891Z,1.25
2023-01-30T14:47:37.932Z,1.10
2023-01-30T14:50:29.390Z,1.30
2023-01-30T14:53:01.323Z,1.50
2023-01-30T14:55:35.020Z,1.42
2023-01-30T14:58:09.735Z,0.88
2023-01-30T15:00:43.331Z,2.07
2023-01-30T15:03:53.772Z,1.17
2023-01-30T15:06:39.960Z,0.90
2023-01-30T15:09:39.989Z,0.90
2023-01-30T15:16:52.412Z,1.03
2023-01-30T15:19:53.841Z,1.02
2023-01-30T15:22:52.261Z,1.25
2023-01-30T15:25:41.038Z,0.77
2023-01-30T15:28:34.364Z,1.10
2023-01-30T15:31:17.998Z,0.90
2023-01-30T15:33:48.387Z,0.82
2023-01-30T15:36:36.110Z,1.00
2023-01-30T15:39:20.681Z,0.90
2023-01-30T15:41:48.561Z,0.90
2023-01-30T15:44:30.856Z,1.60
2023-01-30T15:47:25.633Z,0.70
2023-01-30T15:50:07.476Z,1.42
2023-01-30T15:52:46.460Z,0.52
2023-01-30T15:55:37.075Z,1.10
2023-01-30T15:58:14.663Z,0.80
2023-01-30T16:00:49.591Z,0.82
2023-01-30T16:03:28.871Z,0.90
2023-01-30T16:05:59.533Z,0.60
2023-01-30T16:08:45.841Z,1.10
2023-01-30T16:11:42.347Z,0.93
2023-01-30T16:14:25.003Z,0.90
2023-01-30T16:17:06.619Z,1.30
2023-01-30T16:19:42.635Z,0.85
2023-01-30T16:22:41.901Z,1.20
2023-01-30T16:25:54.251Z,0.83
2023-01-30T16:28:31.958Z,1.05
2023-01-30T16:31:40.320Z,0.90
2023-01-30T16:34:34.354Z,2.38
2023-01-30T16:37:24.832Z,1.13
2023-01-30T16:40:10.850Z,1.50
2023-01-30T16:42:38.391Z,0.95
2023-01-30T16:47:54.986Z,1.38
2023-01-30T16:50:24.991Z,1.20
2023-01-30T16:52:58.148Z,1.27
2023-01-30T16:55:28.355Z,1.63
2023-01-30T16:58:07.767Z,1.45
2023-01-30T17:00:46.597Z,1.30
2023-01-30T17:03:45.786Z,1.60
2023-01-30T17:06:49.470Z,1.47
2023-01-30T17:09:38.873Z,1.27
2023-01-30T17:12:30.001Z,1.35
2023-01-30T17:15:12.408Z,0.90
2023-01-30T17:17:42.431Z,1.52
2023-01-30T17:20:18.173Z,1.37
2023-01-30T17:23:06.308Z,1.33
2023-01-30T17:26:03.776Z,1.20
2023-01-30T17:28:58.968Z,1.20
2023-01-30T17:31:33.303Z,1.38
2023-01-30T17:34:12.677Z,2.47
2023-01-30T17:36:58.012Z,1.60
2023-01-30T17:39:59.272Z,1.30
2023-01-30T17:46:06.831Z,1.70
2023-01-30T17:49:07.203Z,2.53
2023-01-30T17:51:51.582Z,3.92
2023-01-30T17:55:06.544Z,4.13
2023-01-30T17:57:55.209Z,3.25
2023-01-30T18:01:14.479Z,2.05
2023-01-30T18:03:45.113Z,1.70
2023-01-30T18:06:45.303Z,2.15
2023-01-30T18:09:39.304Z,2.33
2023-01-30T18:12:18.361Z,2.03
2023-01-30T18:15:00.265Z,2.72
2023-01-30T18:17:40.746Z,4.53
2023-01-30T18:20:16.842Z,3.22
2023-01-30T18:22:49.310Z,2.78
2023-01-30T18:25:24.401Z,4.13
2023-01-30T18:28:06.882Z,4.35
2023-01-30T18:30:36.826Z,5.43
2023-01-30T18:33:14.878Z,4.50
2023-01-30T18:35:55.249Z,4.25
2023-01-30T18:38:37.496Z,4.43
2023-01-30T18:41:15.313Z,3.95
2023-01-30T18:43:43.935Z,3.90
2023-01-30T18:46:15.394Z,3.80
2023-01-30T18:48:48.735Z,3.70
2023-01-30T18:51:27.325Z,3.80
2023-01-30T18:53:57.919Z,2.88
2023-01-30T18:56:31.899Z,3.33
2023-01-30T18:59:05.500Z,3.55
2023-01-30T19:01:42.424Z,4.45
2023-01-30T19:04:13.677Z,3.78
2023-01-30T19:06:53.231Z,3.30
2023-01-30T19:09:23.472Z,3.22
2023-01-30T19:12:12.419Z,4.18
2023-01-30T19:14:39.989Z,3.75
2023-01-30T19:17:07.194Z,4.10
2023-01-30T19:19:38.716Z,3.85
2023-01-30T19:22:06.181Z,4.57
2023-01-30T19:24:36.075Z,4.45
2023-01-30T19:27:05.462Z,4.63
2023-01-30T19:29:41.378Z,5.97
2023-01-30T19:32:12.153Z,6.10
2023-01-30T19:34:44.101Z,6.20
2023-01-30T19:37:33.123Z,6.45
2023-01-30T19:40:39.064Z,6.57
2023-01-30T19:43:10.977Z,5.07
2023-01-30T19:45:42.873Z,4.70
2023-01-30T19:48:15.577Z,5.40
2023-01-30T19:50:44.869Z,7.35
2023-01-30T19:53:13.190Z,5.97
2023-01-30T19:55:40.342Z,5.40
2023-01-30T19:58:17.915Z,3.10
2023-01-30T20:00:47.211Z,2.73
2023-01-30T20:03:26.301Z,4.18
2023-01-30T20:05:57.840Z,4.53
2023-01-30T20:08:32.272Z,5.95
2023-01-30T20:11:09.610Z,4.38
2023-01-30T20:13:38.582Z,3.17
2023-01-30T20:16:12.909Z,4.40
2023-01-30T20:18:41.450Z,4.20
2023-01-30T20:21:23.046Z,4.20
2023-01-30T20:23:51.119Z,6.80
2023-01-30T20:26:23.729Z,5.87
2023-01-30T20:28:51.191Z,6.00
2023-01-30T20:31:28.186Z,6.13
2023-01-30T20:33:57.783Z,5.50
2023-01-30T20:36:27.163Z,4.18
2023-01-30T20:38:56.021Z,3.65
2023-01-30T20:41:26.292Z,3.55
2023-01-30T20:43:59.437Z,3.58
2023-01-30T20:46:30.200Z,3.05
2023-01-30T20:49:01.294Z,3.83
2023-01-30T20:51:31.529Z,3.17
2023-01-30T20:54:07.456Z,3.13
2023-01-30T20:56:45.835Z,3.22
2023-01-30T20:59:16.955Z,3.60
2023-01-30T21:01:52.038Z,3.15
2023-01-30T21:04:20.458Z,3.90
2023-01-30T21:06:48.052Z,3.58
2023-01-30T21:09:21.752Z,3.90
2023-01-30T21:11:51.028Z,2.97
2023-01-30T21:14:18.631Z,3.60
2023-01-30T21:16:46.558Z,3.80
2023-01-30T21:19:16.460Z,4.05
2023-01-30T21:21:51.451Z,4.20
2023-01-30T21:24:28.236Z,3.78
2023-01-30T21:26:56.709Z,4.18
2023-01-30T21:29:27.309Z,3.53
2023-01-30T21:31:56.024Z,4.30
2023-01-30T21:34:24.001Z,3.95
2023-01-30T21:37:10.153Z,4.13
2023-01-30T21:39:56.323Z,3.85
2023-01-30T21:42:42.082Z,3.60
2023-01-30T21:45:09.424Z,3.50
2023-01-30T21:47:37.115Z,3.38
2023-01-30T21:50:05.015Z,3.00
2023-01-30T21:52:33.418Z,3.13
2023-01-30T21:55:00.839Z,3.63
2023-01-30T21:57:28.064Z,3.17
2023-01-30T21:59:55.617Z,2.75
2023-01-30T22:02:23.187Z,2.95
2023-01-30T22:04:51.052Z,3.13
2023-01-30T22:07:18.153Z,2.90
2023-01-30T22:09:45.208Z,3.38
2023-01-30T22:12:12.312Z,2.83
2023-01-30T22:14:39.778Z,3.00
2023-01-30T22:17:07.137Z,3.13
2023-01-30T22:19:35.694Z,3.10
2023-01-30T22:22:03.939Z,3.13
2023-01-30T22:24:31.467Z,3.03
2023-01-30T22:26:58.676Z,2.78
2023-01-30T22:29:25.811Z,2.95
2023-01-30T22:31:53.468Z,3.65
2023-01-30T22:34:21.071Z,3.00
2023-01-30T22:36:48.231Z,3.50
2023-01-30T22:39:15.377Z,3.13
2023-01-30T22:41:42.546Z,3.72
2023-01-30T22:44:10.835Z,2.50
2023-01-30T22:46:40.277Z,3.28
2023-01-30T22:49:09.831Z,2.85
2023-01-30T22:51:43.195Z,2.92
2023-01-30T22:54:17.368Z,2.70
2023-01-30T22:56:48.840Z,3.03
2023-01-30T22:59:16.214Z,3.10
2023-01-30T23:01:47.841Z,2.95
2023-01-30T23:04:21.712Z,3.17
2023-01-30T23:06:51.857Z,3.10
2023-01-30T23:09:24.504Z,3.22
2023-01-30T23:12:16.147Z,3.38
2023-01-30T23:14:43.838Z,2.85
2023-01-30T23:17:30.282Z,3.88
2023-01-30T23:19:57.443Z,3.47
2023-01-30T23:22:24.801Z,3.75
2023-01-30T23:24:52.284Z,3.45
2023-01-30T23:27:20.601Z,3.83
2023-01-30T23:29:47.782Z,3.45
2023-01-30T23:32:15.272Z,3.10
2023-01-30T23:34:42.488Z,3.50
2023-01-30T23:37:09.599Z,4.13
2023-01-30T23:39:36.848Z,3.78
2023-01-30T23:42:04.172Z,3.42
2023-01-30T23:44:31.394Z,3.78
2023-01-30T23:46:58.547Z,4.28
2023-01-30T23:49:28.201Z,2.97
2023-01-30T23:51:55.338Z,3.65
2023-01-30T23:54:22.585Z,3.30
2023-01-30T23:56:49.809Z,3.25
2023-01-30T23:59:19.519Z,3.60
